createdAt,value
2023-04-01T00:00:35.234Z,8.7
2023-04-01T00:01:35.230Z,9.4
2023-04-01T00:02:35.296Z,8.9
2023-04-01T00:03:35.334Z,8.6
2023-04-01T00:04:35.265Z,7.8
2023-04-01T00:05:35.168Z,8.2
2023-04-01T00:06:35.236Z,7.7
2023-04-01T00:07:35.220Z,9.6
2023-04-01T00:08:35.180Z,9.3
2023-04-01T00:09:35.168Z,8.9
2023-04-01T00:10:35.170Z,9.1
2023-04-01T00:11:35.146Z,8.3
2023-04-01T00:12:35.173Z,7.9
2023-04-01T00:13:35.491Z,8.9
2023-04-01T00:14:35.156Z,6.9
2023-04-01T00:15:35.138Z,6.9
2023-04-01T00:16:35.279Z,7.2
2023-04-01T00:17:35.236Z,5.9
2023-04-01T00:18:35.158Z,6.6
2023-04-01T00:19:35.160Z,7.2
2023-04-01T00:20:35.174Z,6.3
2023-04-01T00:21:35.144Z,7.0
2023-04-01T00:22:35.188Z,7.7
2023-04-01T00:23:35.124Z,6.7
2023-04-01T00:24:35.390Z,11.5
2023-04-01T00:25:35.380Z,8.0
2023-04-01T00:26:35.196Z,12.0
2023-04-01T00:27:35.251Z,16.6
2023-04-01T00:28:35.159Z,11.3
2023-04-01T00:29:35.148Z,9.5
2023-04-01T00:30:35.138Z,12.7
2023-04-01T00:31:35.230Z,12.0
2023-04-01T00:32:35.200Z,12.6
2023-04-01T00:33:35.127Z,10.6
2023-04-01T00:34:35.130Z,9.2
2023-04-01T00:35:35.426Z,9.7
2023-04-01T00:36:35.170Z,9.9
2023-04-01T00:37:35.231Z,11.2
2023-04-01T00:38:35.102Z,10.3
2023-04-01T00:39:35.181Z,9.0
2023-04-01T00:40:35.099Z,11.5
2023-04-01T00:41:35.150Z,17.7
2023-04-01T00:42:35.209Z,18.1
2023-04-01T00:43:35.120Z,12.0
2023-04-01T00:44:35.169Z,10.5
2023-04-01T00:45:35.079Z,10.7
2023-04-01T00:46:35.346Z,9.4
2023-04-01T00:47:35.116Z,19.4
2023-04-01T00:48:35.140Z,12.8
2023-04-01T00:49:36.288Z,8.9
2023-04-01T00:50:35.092Z,17.0
2023-04-01T00:51:35.073Z,8.6
2023-04-01T00:52:35.109Z,8.2
2023-04-01T00:53:35.163Z,7.2
2023-04-01T00:54:35.147Z,10.1
2023-04-01T00:55:35.151Z,10.8
2023-04-01T00:56:35.161Z,10.2
2023-04-01T00:57:35.400Z,8.6
2023-04-01T00:58:35.140Z,7.6
2023-04-01T00:59:35.086Z,7.7
2023-04-01T01:00:35.145Z,7.2
2023-04-01T01:01:35.087Z,7.5
2023-04-01T01:02:35.367Z,7.6
2023-04-01T01:03:35.332Z,7.0
2023-04-01T01:04:35.075Z,6.7
2023-04-01T01:05:42.604Z,6.1
2023-04-01T01:06:35.111Z,6.9
2023-04-01T01:07:35.064Z,7.1
2023-04-01T01:08:35.351Z,8.4
2023-04-01T01:09:35.171Z,8.9
2023-04-01T01:10:35.117Z,9.5
2023-04-01T01:11:40.888Z,11.7
2023-04-01T01:12:35.118Z,10.1
2023-04-01T01:13:35.026Z,15.9
2023-04-01T01:14:35.030Z,14.2
2023-04-01T01:15:35.213Z,13.7
2023-04-01T01:16:35.174Z,21.8
2023-04-01T01:17:35.004Z,16.1
2023-04-01T01:18:35.004Z,10.2
2023-04-01T01:19:35.028Z,9.3
2023-04-01T01:20:39.157Z,9.1
2023-04-01T01:21:35.001Z,11.3
2023-04-01T01:22:35.179Z,8.9
2023-04-01T01:23:35.041Z,8.5
2023-04-01T01:24:35.053Z,9.2
2023-04-01T01:25:35.196Z,9.8
2023-04-01T01:26:35.025Z,9.8
2023-04-01T01:27:35.144Z,10.2
2023-04-01T01:28:35.041Z,9.6
2023-04-01T01:29:35.030Z,8.7
2023-04-01T01:30:35.455Z,8.4
2023-04-01T01:31:35.125Z,8.3
2023-04-01T01:32:35.024Z,8.3
2023-04-01T01:33:35.419Z,8.1
2023-04-01T01:34:38.303Z,8.1
2023-04-01T01:35:35.272Z,8.1
2023-04-01T01:36:35.030Z,7.9
2023-04-01T01:37:35.067Z,8.0
2023-04-01T01:38:35.389Z,7.8
2023-04-01T01:39:35.169Z,8.2
2023-04-01T01:40:34.986Z,8.3
2023-04-01T01:41:36.015Z,8.4
2023-04-01T01:42:34.957Z,8.3
2023-04-01T01:43:35.119Z,7.7
2023-04-01T01:44:35.006Z,8.0
2023-04-01T01:45:35.337Z,9.5
2023-04-01T01:46:35.148Z,9.1
2023-04-01T01:47:34.958Z,8.5
2023-04-01T01:48:34.990Z,9.2
2023-04-01T01:49:35.306Z,8.9
2023-04-01T01:50:35.124Z,9.4
2023-04-01T01:51:34.986Z,9.2
2023-04-01T01:52:35.198Z,8.7
2023-04-01T01:53:34.942Z,9.1
2023-04-01T01:54:35.033Z,9.8
2023-04-01T01:55:35.129Z,9.5
2023-04-01T01:56:34.974Z,9.2
2023-04-01T01:57:35.085Z,9.8
2023-04-01T01:58:34.918Z,9.8
2023-04-01T01:59:34.934Z,9.7
2023-04-01T02:00:35.299Z,9.4
2023-04-01T02:01:34.986Z,9.8
2023-04-01T02:02:35.011Z,9.7
2023-04-01T02:03:35.126Z,9.9
2023-04-01T02:04:34.968Z,9.2
2023-04-01T02:05:35.435Z,10.0
2023-04-01T02:06:34.929Z,9.5
2023-04-01T02:07:34.945Z,9.5
2023-04-01T02:08:34.998Z,9.6
2023-04-01T02:09:34.984Z,10.4
2023-04-01T02:10:34.962Z,9.9
2023-04-01T02:11:34.919Z,9.1
2023-04-01T02:12:34.935Z,9.9
2023-04-01T02:13:34.908Z,10.0
2023-04-01T02:14:35.128Z,10.0
2023-04-01T02:15:35.017Z,10.3
2023-04-01T02:16:34.906Z,10.0
2023-04-01T02:17:34.941Z,10.1
2023-04-01T02:18:34.994Z,10.2
2023-04-01T02:19:34.934Z,9.5
2023-04-01T02:20:34.933Z,9.5
2023-04-01T02:21:34.954Z,8.9
2023-04-01T02:22:34.951Z,8.8
2023-04-01T02:23:34.899Z,8.7
2023-04-01T02:24:34.937Z,9.4
2023-04-01T02:25:35.301Z,8.5
2023-04-01T02:26:34.995Z,9.6
2023-04-01T02:27:34.930Z,8.7
2023-04-01T02:28:34.857Z,9.2
2023-04-01T02:29:34.918Z,9.2
2023-04-01T02:30:34.862Z,9.1
2023-04-01T02:31:34.906Z,9.0
2023-04-01T02:32:35.008Z,9.0
2023-04-01T02:33:34.906Z,9.4
2023-04-01T02:34:34.852Z,8.9
2023-04-01T02:35:35.022Z,9.4
2023-04-01T02:36:34.892Z,9.1
2023-04-01T02:37:36.284Z,9.8
2023-04-01T02:38:34.881Z,9.5
2023-04-01T02:39:34.884Z,9.2
2023-04-01T02:40:34.852Z,9.4
2023-04-01T02:41:34.856Z,10.0
2023-04-01T02:42:34.927Z,11.4
2023-04-01T02:43:34.855Z,9.2
2023-04-01T02:44:34.886Z,9.5
2023-04-01T02:45:35.049Z,9.6
2023-04-01T02:46:34.903Z,10.0
2023-04-01T02:47:35.070Z,10.7
2023-04-01T02:48:34.863Z,10.7
2023-04-01T02:49:34.827Z,10.1
2023-04-01T02:50:34.834Z,9.9
2023-04-01T02:51:35.100Z,10.4
2023-04-01T02:52:34.862Z,10.3
2023-04-01T02:53:34.875Z,11.0
2023-04-01T02:54:34.841Z,10.6
2023-04-01T02:55:35.099Z,11.0
2023-04-01T02:56:34.860Z,10.3
2023-04-01T02:57:34.908Z,10.4
2023-04-01T02:58:34.965Z,11.0
2023-04-01T02:59:34.867Z,11.1
2023-04-01T03:00:34.825Z,11.1
2023-04-01T03:01:34.923Z,11.8
2023-04-01T03:02:35.022Z,11.9
2023-04-01T03:03:34.918Z,11.7
2023-04-01T03:04:34.853Z,12.1
2023-04-01T03:05:35.094Z,12.2
2023-04-01T03:06:34.826Z,12.3
2023-04-01T03:07:34.883Z,12.3
2023-04-01T03:08:34.812Z,13.1
2023-04-01T03:09:35.013Z,12.9
2023-04-01T03:10:34.824Z,13.8
2023-04-01T03:11:34.818Z,14.3
2023-04-01T03:12:34.785Z,14.3
2023-04-01T03:13:34.866Z,16.0
2023-04-01T03:14:34.824Z,14.5
2023-04-01T03:15:34.954Z,15.8
2023-04-01T03:16:34.950Z,17.6
2023-04-01T03:17:34.853Z,17.2
2023-04-01T03:18:34.797Z,18.2
2023-04-01T03:19:34.806Z,18.6
2023-04-01T03:20:35.122Z,19.9
2023-04-01T03:21:34.820Z,21.7
2023-04-01T03:22:34.859Z,20.8
2023-04-01T03:23:34.779Z,21.6
2023-04-01T03:24:34.794Z,21.3
2023-04-01T03:25:35.111Z,22.0
2023-04-01T03:26:34.774Z,22.5
2023-04-01T03:27:34.776Z,22.5
2023-04-01T03:28:34.953Z,21.2
2023-04-01T03:29:34.836Z,21.6
2023-04-01T03:30:34.801Z,23.0
2023-04-01T03:31:34.958Z,22.0
2023-04-01T03:32:34.808Z,22.8
2023-04-01T03:33:34.794Z,23.0
2023-04-01T03:34:34.842Z,22.7
2023-04-01T03:35:35.111Z,22.2
2023-04-01T03:36:34.839Z,21.5
2023-04-01T03:37:34.759Z,20.1
2023-04-01T03:38:34.781Z,20.5
2023-04-01T03:39:34.931Z,21.0
2023-04-01T03:40:34.797Z,18.7
2023-04-01T03:41:34.772Z,19.6
2023-04-01T03:42:34.990Z,18.9
2023-04-01T03:43:34.764Z,18.9
2023-04-01T03:44:34.804Z,18.6
2023-04-01T03:45:34.988Z,18.9
2023-04-01T03:46:34.787Z,19.2
2023-04-01T03:47:34.776Z,18.6
2023-04-01T03:48:34.809Z,18.9
2023-04-01T03:49:34.795Z,19.2
2023-04-01T03:50:34.828Z,18.9
2023-04-01T03:51:34.804Z,19.6
2023-04-01T03:52:34.806Z,18.3
2023-04-01T03:53:34.946Z,19.2
2023-04-01T03:54:34.812Z,19.8
2023-04-01T03:55:35.000Z,21.0
2023-04-01T03:56:34.759Z,19.5
2023-04-01T03:57:34.870Z,22.5
2023-04-01T03:58:34.735Z,22.1
2023-04-01T03:59:34.776Z,20.8
2023-04-01T04:00:34.771Z,19.6
2023-04-01T04:01:34.780Z,21.7
2023-04-01T04:02:34.811Z,20.2
2023-04-01T04:03:34.810Z,22.1
2023-04-01T04:04:34.993Z,21.4
2023-04-01T04:05:35.271Z,23.5
2023-04-01T04:06:34.740Z,23.4
2023-04-01T04:07:34.698Z,22.5
2023-04-01T04:08:34.763Z,23.1
2023-04-01T04:09:34.744Z,22.6
2023-04-01T04:10:34.807Z,22.8
2023-04-01T04:11:34.807Z,24.4
2023-04-01T04:12:34.706Z,23.2
2023-04-01T04:13:34.744Z,22.4
2023-04-01T04:14:34.762Z,21.5
2023-04-01T04:15:34.938Z,21.7
2023-04-01T04:16:34.697Z,18.9
2023-04-01T04:17:34.754Z,19.4
2023-04-01T04:18:34.763Z,19.6
2023-04-01T04:19:34.689Z,19.3
2023-04-01T04:20:34.750Z,18.8
2023-04-01T04:21:34.719Z,18.7
2023-04-01T04:22:34.725Z,18.0
2023-04-01T04:23:34.708Z,17.8
2023-04-01T04:24:34.716Z,18.4
2023-04-01T04:25:35.300Z,18.3
2023-04-01T04:26:34.954Z,17.4
2023-04-01T04:27:34.741Z,18.1
2023-04-01T04:28:34.645Z,18.3
2023-04-01T04:29:34.671Z,18.1
2023-04-01T04:30:34.749Z,17.9
2023-04-01T04:31:34.801Z,18.7
2023-04-01T04:32:34.703Z,17.8
2023-04-01T04:33:34.674Z,17.5
2023-04-01T04:34:34.667Z,16.3
2023-04-01T04:35:35.112Z,17.2
2023-04-01T04:36:34.651Z,18.1
2023-04-01T04:37:34.884Z,18.2
2023-04-01T04:38:34.636Z,18.7
2023-04-01T04:39:34.656Z,17.3
2023-04-01T04:40:34.689Z,17.2
2023-04-01T04:41:37.171Z,17.5
2023-04-01T04:42:34.731Z,17.1
2023-04-01T04:43:34.661Z,17.7
2023-04-01T04:44:34.633Z,16.3
2023-04-01T04:45:35.015Z,17.8
2023-04-01T04:46:34.747Z,18.6
2023-04-01T04:47:34.735Z,18.2
2023-04-01T04:48:34.796Z,18.3
2023-04-01T04:49:34.663Z,19.3
2023-04-01T04:50:34.622Z,20.2
2023-04-01T04:51:34.779Z,19.0
2023-04-01T04:52:34.695Z,20.1
2023-04-01T04:53:34.648Z,20.9
2023-04-01T04:54:34.610Z,20.9
2023-04-01T04:55:34.845Z,20.4
2023-04-01T04:56:34.709Z,21.1
2023-04-01T04:57:34.769Z,20.3
2023-04-01T04:58:34.646Z,21.4
2023-04-01T04:59:34.772Z,21.5
2023-04-01T05:00:34.642Z,22.8
2023-04-01T05:01:34.659Z,20.2
2023-04-01T05:02:34.730Z,22.9
2023-04-01T05:03:34.787Z,21.4
2023-04-01T05:04:34.640Z,21.3
2023-04-01T05:05:34.823Z,22.1
2023-04-01T05:06:34.631Z,20.9
2023-04-01T05:07:34.669Z,21.0
2023-04-01T05:08:34.659Z,21.6
2023-04-01T05:09:34.671Z,21.1
2023-04-01T05:10:34.756Z,22.2
2023-04-01T05:11:34.617Z,22.2
2023-04-01T05:12:34.716Z,21.7
2023-04-01T05:13:34.668Z,20.8
2023-04-01T05:14:34.646Z,19.9
2023-04-01T05:15:34.897Z,20.8
2023-04-01T05:16:34.690Z,19.9
2023-04-01T05:17:34.691Z,19.8
2023-04-01T05:18:45.333Z,18.4
2023-04-01T05:19:34.618Z,19.0
2023-04-01T05:20:34.572Z,18.4
2023-04-01T05:21:34.935Z,20.2
2023-04-01T05:22:34.638Z,20.7
2023-04-01T05:23:34.571Z,19.0
2023-04-01T05:24:34.746Z,19.1
2023-04-01T05:25:35.065Z,18.4
2023-04-01T05:26:34.599Z,17.8
2023-04-01T05:27:34.590Z,17.1
2023-04-01T05:28:34.557Z,15.1
2023-04-01T05:29:34.557Z,14.4
2023-04-01T05:30:34.728Z,14.6
2023-04-01T05:31:34.585Z,14.1
2023-04-01T05:32:34.769Z,14.8
2023-04-01T05:33:34.675Z,13.9
2023-04-01T05:34:34.591Z,13.4
2023-04-01T05:35:35.051Z,14.1
2023-04-01T05:36:34.582Z,13.1
2023-04-01T05:37:34.594Z,12.4
2023-04-01T05:38:34.562Z,13.7
2023-04-01T05:39:34.609Z,14.4
2023-04-01T05:40:34.626Z,13.1
2023-04-01T05:41:34.567Z,13.3
2023-04-01T05:42:36.640Z,15.1
2023-04-01T05:43:34.537Z,13.5
2023-04-01T05:44:34.566Z,14.0
2023-04-01T05:45:34.890Z,14.4
2023-04-01T05:46:34.679Z,14.0
2023-04-01T05:47:34.575Z,13.5
2023-04-01T05:48:34.593Z,13.2
2023-04-01T05:49:34.554Z,13.8
2023-04-01T05:50:34.554Z,12.9
2023-04-01T05:51:34.626Z,13.9
2023-04-01T05:52:34.621Z,17.3
2023-04-01T05:53:34.595Z,14.5
2023-04-01T05:54:34.710Z,13.0
2023-04-01T05:55:34.903Z,12.5
2023-04-01T05:56:34.556Z,11.3
2023-04-01T05:57:34.643Z,12.5
2023-04-01T05:58:34.552Z,12.8
2023-04-01T05:59:34.556Z,12.9
2023-04-01T06:00:34.530Z,11.4
2023-04-01T06:01:34.550Z,12.5
2023-04-01T06:02:34.556Z,13.4
2023-04-01T06:03:34.685Z,13.0
2023-04-01T06:04:34.547Z,12.9
2023-04-01T06:05:34.903Z,12.1
2023-04-01T06:06:34.482Z,11.7
2023-04-01T06:07:34.488Z,12.9
2023-04-01T06:08:34.503Z,11.3
2023-04-01T06:09:34.528Z,11.5
2023-04-01T06:10:34.517Z,11.3
2023-04-01T06:11:34.513Z,11.1
2023-04-01T06:12:34.515Z,10.6
2023-04-01T06:13:34.555Z,10.9
2023-04-01T06:14:34.491Z,10.7
2023-04-01T06:15:34.730Z,10.2
2023-04-01T06:16:34.688Z,11.3
2023-04-01T06:17:34.523Z,11.9
2023-04-01T06:18:34.513Z,11.7
2023-04-01T06:19:34.544Z,12.2
2023-04-01T06:20:34.494Z,10.5
2023-04-01T06:21:34.559Z,10.7
2023-04-01T06:22:34.502Z,11.4
2023-04-01T06:23:34.477Z,10.6
2023-04-01T06:24:34.423Z,10.4
2023-04-01T06:25:34.883Z,10.1
2023-04-01T06:26:34.509Z,10.7
2023-04-01T06:27:34.745Z,10.7
2023-04-01T06:28:34.500Z,11.6
2023-04-01T06:29:34.557Z,12.0
2023-04-01T06:30:34.508Z,12.1
2023-04-01T06:31:34.530Z,11.5
2023-04-01T06:32:34.565Z,11.9
2023-04-01T06:33:34.483Z,12.1
2023-04-01T06:34:34.534Z,12.7
2023-04-01T06:35:34.715Z,12.5
2023-04-01T06:36:34.568Z,13.2
2023-04-01T06:37:34.540Z,11.4
2023-04-01T06:38:34.813Z,12.6
2023-04-01T06:39:34.562Z,12.4
2023-04-01T06:40:34.511Z,13.1
2023-04-01T06:41:34.749Z,13.4
2023-04-01T06:42:34.448Z,13.4
2023-04-01T06:43:34.450Z,12.2
2023-04-01T06:44:34.449Z,12.8
2023-04-01T06:45:34.674Z,11.5
2023-04-01T06:46:34.500Z,11.9
2023-04-01T06:47:34.503Z,11.5
2023-04-01T06:48:34.484Z,11.6
2023-04-01T06:49:34.468Z,10.8
2023-04-01T06:50:34.486Z,11.2
2023-04-01T06:51:34.576Z,10.7
2023-04-01T06:52:34.440Z,10.7
2023-04-01T06:53:34.461Z,10.5
2023-04-01T06:54:34.422Z,11.0
2023-04-01T06:55:35.079Z,10.0
2023-04-01T06:56:34.592Z,9.3
2023-04-01T06:57:34.427Z,10.9
2023-04-01T06:58:34.447Z,10.6
2023-04-01T06:59:34.858Z,10.0
2023-04-01T07:00:34.613Z,9.7
2023-04-01T07:01:34.598Z,9.7
2023-04-01T07:02:34.516Z,9.7
2023-04-01T07:03:34.409Z,9.0
2023-04-01T07:04:34.554Z,9.6
2023-04-01T07:05:34.690Z,11.1
2023-04-01T07:06:34.425Z,9.8
2023-04-01T07:07:34.446Z,9.0
2023-04-01T07:08:34.454Z,10.7
2023-04-01T07:09:34.441Z,8.7
2023-04-01T07:10:34.457Z,9.5
2023-04-01T07:11:34.711Z,8.7
2023-04-01T07:12:34.475Z,9.0
2023-04-01T07:13:34.463Z,9.1
2023-04-01T07:14:34.421Z,10.2
2023-04-01T07:15:34.757Z,9.8
2023-04-01T07:16:34.498Z,11.2
2023-04-01T07:17:34.397Z,10.2
2023-04-01T07:18:34.413Z,9.4
2023-04-01T07:19:34.396Z,8.1
2023-04-01T07:20:34.421Z,8.4
2023-04-01T07:21:34.402Z,9.4
2023-04-01T07:22:34.398Z,8.8
2023-04-01T07:23:34.433Z,8.3
2023-04-01T07:24:34.591Z,9.2
2023-04-01T07:25:34.694Z,8.9
2023-04-01T07:26:34.381Z,9.6
2023-04-01T07:27:34.412Z,16.9
2023-04-01T07:28:34.481Z,24.2
2023-04-01T07:29:34.463Z,9.9
2023-04-01T07:30:34.489Z,16.2
2023-04-01T07:31:34.410Z,9.8
2023-04-01T07:32:36.203Z,10.3
2023-04-01T07:33:34.506Z,9.5
2023-04-01T07:34:34.362Z,10.3
2023-04-01T07:35:34.703Z,10.9
2023-04-01T07:36:34.384Z,11.2
2023-04-01T07:37:34.355Z,11.2
2023-04-01T07:38:34.426Z,12.4
2023-04-01T07:39:34.420Z,11.9
2023-04-01T07:40:34.438Z,11.1
2023-04-01T07:41:34.366Z,13.1
2023-04-01T07:42:34.336Z,14.5
2023-04-01T07:43:34.435Z,14.6
2023-04-01T07:44:34.533Z,13.8
2023-04-01T07:45:34.843Z,12.4
2023-04-01T07:46:34.412Z,11.2
2023-04-01T07:47:34.457Z,11.3
2023-04-01T07:48:34.397Z,11.4
2023-04-01T07:49:34.369Z,12.2
2023-04-01T07:50:34.397Z,11.4
2023-04-01T07:51:34.365Z,11.3
2023-04-01T07:52:34.392Z,11.2
2023-04-01T07:53:34.350Z,12.7
2023-04-01T07:54:34.388Z,10.3
2023-04-01T07:55:34.589Z,11.0
2023-04-01T07:56:34.394Z,10.8
2023-04-01T07:57:34.462Z,10.2
2023-04-01T07:58:34.374Z,13.6
2023-04-01T07:59:34.389Z,12.6
2023-04-01T08:00:34.381Z,12.3
2023-04-01T08:01:34.369Z,11.1
2023-04-01T08:02:34.504Z,10.3
2023-04-01T08:03:34.487Z,10.0
2023-04-01T08:04:34.441Z,9.7
2023-04-01T08:05:34.613Z,10.3
2023-04-01T08:06:34.506Z,10.3
2023-04-01T08:07:34.312Z,11.5
2023-04-01T08:08:34.331Z,12.6
2023-04-01T08:09:34.328Z,13.8
2023-04-01T08:10:34.323Z,11.3
2023-04-01T08:11:34.343Z,12.3
2023-04-01T08:12:34.328Z,10.9
2023-04-01T08:13:34.286Z,12.0
2023-04-01T08:14:34.265Z,10.6
2023-04-01T08:15:34.695Z,12.5
2023-04-01T08:16:34.374Z,11.7
2023-04-01T08:17:34.552Z,11.6
2023-04-01T08:18:34.363Z,10.3
2023-04-01T08:19:34.329Z,10.7
2023-04-01T08:20:34.244Z,12.1
2023-04-01T08:21:34.300Z,13.7
2023-04-01T08:22:34.298Z,14.6
2023-04-01T08:23:34.296Z,14.9
2023-04-01T08:24:44.393Z,13.8
2023-04-01T08:25:34.560Z,12.9
2023-04-01T08:26:34.270Z,14.4
2023-04-01T08:27:34.302Z,12.3
2023-04-01T08:28:34.454Z,12.7
2023-04-01T08:29:34.299Z,13.9
2023-04-01T08:30:34.264Z,14.0
2023-04-01T08:31:34.250Z,13.7
2023-04-01T08:32:34.248Z,12.9
2023-04-01T08:33:34.298Z,13.4
2023-04-01T08:34:34.284Z,11.8
2023-04-01T08:35:36.130Z,12.2
2023-04-01T08:36:34.336Z,11.3
2023-04-01T08:37:34.284Z,10.9
2023-04-01T08:38:34.230Z,11.9
2023-04-01T08:39:34.467Z,12.1
2023-04-01T08:40:34.247Z,12.1
2023-04-01T08:41:34.250Z,12.6
2023-04-01T08:42:34.284Z,17.0
2023-04-01T08:43:34.235Z,15.1
2023-04-01T08:44:34.235Z,13.4
2023-04-01T08:45:34.461Z,13.5
2023-04-01T08:46:34.252Z,17.0
2023-04-01T08:47:34.304Z,16.3
2023-04-01T08:48:34.227Z,15.1
2023-04-01T08:49:34.256Z,15.5
2023-04-01T08:50:34.489Z,13.4
2023-04-01T08:51:34.240Z,11.6
2023-04-01T08:52:34.310Z,11.2
2023-04-01T08:53:34.263Z,11.4
2023-04-01T08:54:34.271Z,11.3
2023-04-01T08:55:34.480Z,17.1
2023-04-01T08:56:34.248Z,15.8
2023-04-01T08:57:34.260Z,20.7
2023-04-01T08:58:34.237Z,14.7
2023-04-01T08:59:34.257Z,17.7
2023-04-01T09:00:34.274Z,14.5
2023-04-01T09:01:34.321Z,38.2
2023-04-01T09:02:34.456Z,15.0
2023-04-01T09:03:34.363Z,16.4
2023-04-01T09:04:34.374Z,23.4
2023-04-01T09:05:34.526Z,15.5
2023-04-01T09:06:34.242Z,14.4
2023-04-01T09:07:34.201Z,13.9
2023-04-01T09:08:34.265Z,16.8
2023-04-01T09:09:34.249Z,15.9
2023-04-01T09:10:34.223Z,16.3
2023-04-01T09:11:34.224Z,18.7
2023-04-01T09:12:34.440Z,15.4
2023-04-01T09:13:34.420Z,14.0
2023-04-01T09:14:34.247Z,12.2
2023-04-01T09:15:34.396Z,13.3
2023-04-01T09:16:34.195Z,15.6
2023-04-01T09:17:34.226Z,13.6
2023-04-01T09:18:34.162Z,10.2
2023-04-01T09:19:34.258Z,15.8
2023-04-01T09:20:34.217Z,16.9
2023-04-01T09:21:34.184Z,10.5
2023-04-01T09:22:34.216Z,10.4
2023-04-01T09:23:34.154Z,12.4
2023-04-01T09:24:34.233Z,13.5
2023-04-01T09:25:34.567Z,25.7
2023-04-01T09:26:34.209Z,21.6
2023-04-01T09:27:34.209Z,17.1
2023-04-01T09:28:34.173Z,19.8
2023-04-01T09:29:34.213Z,13.3
2023-04-01T09:30:34.207Z,11.7
2023-04-01T09:31:34.230Z,14.3
2023-04-01T09:32:34.441Z,12.7
2023-04-01T09:33:34.365Z,32.0
2023-04-01T09:34:34.245Z,30.3
2023-04-01T09:35:34.435Z,19.3
2023-04-01T09:36:34.172Z,12.2
2023-04-01T09:37:34.176Z,12.1
2023-04-01T09:38:34.178Z,12.6
2023-04-01T09:39:34.200Z,11.2
2023-04-01T09:40:34.165Z,14.3
2023-04-01T09:41:34.240Z,11.3
2023-04-01T09:42:34.201Z,11.4
2023-04-01T09:43:34.161Z,10.4
2023-04-01T09:44:34.170Z,8.3
2023-04-01T09:45:34.597Z,10.0
2023-04-01T09:46:34.147Z,9.5
2023-04-01T09:47:34.189Z,12.2
2023-04-01T09:48:34.141Z,9.9
2023-04-01T09:49:34.149Z,9.3
2023-04-01T09:50:34.143Z,8.3
2023-04-01T09:51:34.304Z,9.4
2023-04-01T09:52:34.125Z,10.6
2023-04-01T09:53:34.198Z,11.4
2023-04-01T09:54:34.292Z,9.7
2023-04-01T09:55:34.404Z,7.1
2023-04-01T09:56:34.368Z,11.0
2023-04-01T09:57:34.243Z,8.1
2023-04-01T09:58:34.144Z,6.2
2023-04-01T09:59:34.150Z,9.2
2023-04-01T10:00:34.139Z,18.3
2023-04-01T10:01:34.241Z,19.0
2023-04-01T10:02:34.377Z,26.5
2023-04-01T10:03:34.205Z,26.9
2023-04-01T10:04:34.136Z,22.2
2023-04-01T10:05:34.537Z,42.0
2023-04-01T10:06:34.122Z,25.1
2023-04-01T10:07:34.115Z,33.7
2023-04-01T10:08:34.208Z,44.4
2023-04-01T10:09:34.116Z,32.5
2023-04-01T10:10:34.126Z,19.1
2023-04-01T10:11:34.134Z,32.8
2023-04-01T10:12:34.141Z,27.6
2023-04-01T10:13:34.095Z,30.3
2023-04-01T10:14:34.129Z,41.9
2023-04-01T10:15:34.348Z,34.4
2023-04-01T10:16:34.372Z,19.3
2023-04-01T10:17:34.225Z,31.7
2023-04-01T10:18:34.153Z,41.2
2023-04-01T10:19:34.306Z,25.6
2023-04-01T10:20:34.178Z,17.2
2023-04-01T10:21:34.200Z,17.6
2023-04-01T10:22:34.099Z,24.3
2023-04-01T10:23:34.098Z,29.6
2023-04-01T10:24:34.094Z,23.4
2023-04-01T10:25:34.394Z,32.6
2023-04-01T10:26:34.179Z,29.9
2023-04-01T10:27:34.086Z,24.1
2023-04-01T10:28:34.095Z,15.4
2023-04-01T10:29:34.096Z,19.3
2023-04-01T10:30:34.076Z,22.5
2023-04-01T10:31:34.261Z,16.3
2023-04-01T10:32:34.171Z,19.7
2023-04-01T10:33:34.109Z,15.7
2023-04-01T10:34:34.080Z,9.4
2023-04-01T10:35:34.370Z,9.9
2023-04-01T10:36:34.113Z,10.6
2023-04-01T10:37:34.079Z,11.6
2023-04-01T10:38:34.288Z,9.5
2023-04-01T10:39:34.089Z,8.6
2023-04-01T10:40:34.054Z,7.7
2023-04-01T10:41:34.085Z,9.2
2023-04-01T10:42:34.090Z,9.4
2023-04-01T10:43:34.034Z,10.5
2023-04-01T10:44:34.069Z,20.5
2023-04-01T10:45:34.295Z,10.8
2023-04-01T10:46:34.178Z,20.6
2023-04-01T10:47:34.179Z,11.7
2023-04-01T10:48:34.066Z,10.7
2023-04-01T10:49:34.091Z,8.8
2023-04-01T10:50:34.066Z,6.3
2023-04-01T10:51:34.176Z,6.7
2023-04-01T10:52:34.033Z,24.4
2023-04-01T10:53:34.110Z,8.1
2023-04-01T10:54:34.093Z,6.5
2023-04-01T10:55:34.356Z,6.1
2023-04-01T10:56:34.107Z,5.6
2023-04-01T10:57:34.147Z,6.2
2023-04-01T10:58:34.095Z,5.0
2023-04-01T10:59:34.312Z,6.9
2023-04-01T11:00:34.064Z,6.6
2023-04-01T11:01:34.163Z,5.0
2023-04-01T11:02:34.115Z,4.9
2023-04-01T11:03:34.079Z,4.4
2023-04-01T11:04:34.091Z,5.4
2023-04-01T11:05:34.336Z,8.6
2023-04-01T11:06:34.208Z,7.6
2023-04-01T11:07:34.024Z,8.2
2023-04-01T11:08:34.017Z,5.3
2023-04-01T11:09:34.294Z,4.6
2023-04-01T11:10:34.156Z,4.8
2023-04-01T11:11:34.121Z,4.6
2023-04-01T11:12:34.052Z,6.5
2023-04-01T11:13:34.084Z,5.6
2023-04-01T11:14:34.063Z,5.0
2023-04-01T11:15:34.190Z,5.0
2023-04-01T11:16:34.282Z,5.1
2023-04-01T11:17:34.126Z,4.4
2023-04-01T11:18:34.101Z,4.9
2023-04-01T11:19:34.080Z,4.5
2023-04-01T11:20:34.021Z,4.7
2023-04-01T11:21:34.247Z,4.3
2023-04-01T11:22:34.002Z,49.4
2023-04-01T11:23:51.953Z,33.4
2023-04-01T11:24:44.316Z,26.3
2023-04-01T11:25:44.280Z,16.4
2023-04-01T11:26:44.284Z,20.3
2023-04-01T11:27:44.390Z,6.1
2023-04-01T11:28:44.303Z,4.5
2023-04-01T11:29:53.184Z,11.0
2023-04-01T11:30:44.268Z,50.3
2023-04-01T11:31:44.352Z,14.3
2023-04-01T11:32:44.397Z,23.7
2023-04-01T11:33:44.275Z,9.0
2023-04-01T11:34:44.274Z,5.9
2023-04-01T11:35:44.260Z,11.2
2023-04-01T11:36:44.286Z,15.0
2023-04-01T11:37:44.293Z,6.6
2023-04-01T11:38:44.237Z,9.9
2023-04-01T11:39:44.279Z,49.9
2023-04-01T11:40:47.021Z,38.4
2023-04-01T11:41:48.434Z,10.2
2023-04-01T11:42:44.379Z,17.6
2023-04-01T11:44:06.892Z,5.8
2023-04-01T11:44:46.958Z,16.4
2023-04-01T11:46:45.448Z,8.5
2023-04-01T11:47:44.309Z,5.3
2023-04-01T11:48:45.559Z,19.1
2023-04-01T11:49:54.712Z,10.7
2023-04-01T11:50:45.295Z,8.8
2023-04-01T11:51:48.892Z,16.7
2023-04-01T11:52:48.861Z,15.4
2023-04-01T11:54:44.302Z,8.2
2023-04-01T11:55:44.203Z,6.1
2023-04-01T11:56:45.805Z,9.6
2023-04-01T11:57:44.277Z,8.9
2023-04-01T11:58:48.919Z,9.8
2023-04-01T12:00:45.694Z,12.7
2023-04-01T12:01:45.016Z,12.9
2023-04-01T12:02:44.670Z,80.7
2023-04-01T12:04:45.100Z,23.0
2023-04-01T12:05:44.948Z,190.7
2023-04-01T12:06:45.010Z,361.9
2023-04-01T12:07:46.397Z,154.3
2023-04-01T12:08:44.889Z,52.4
2023-04-01T12:09:44.289Z,73.9
2023-04-01T12:10:44.218Z,46.2
2023-04-01T12:11:44.936Z,32.7
2023-04-01T12:12:54.058Z,194.6
2023-04-01T12:13:44.223Z,50.0
2023-04-01T12:14:44.327Z,25.6
2023-04-01T12:15:44.214Z,9.3
2023-04-01T12:16:44.275Z,21.8
2023-04-01T12:17:44.232Z,7.2
2023-04-01T12:18:44.443Z,7.8
2023-04-01T12:19:44.990Z,25.3
2023-04-01T12:20:44.193Z,102.8
2023-04-01T12:21:44.180Z,19.6
2023-04-01T12:22:44.157Z,49.2
2023-04-01T12:23:44.242Z,18.9
2023-04-01T12:24:44.169Z,11.6
2023-04-01T12:25:44.164Z,6.9
2023-04-01T12:26:44.185Z,18.7
2023-04-01T12:27:44.199Z,35.7
2023-04-01T12:28:44.194Z,17.6
2023-04-01T12:29:44.200Z,12.5
2023-04-01T12:30:44.318Z,7.0
2023-04-01T12:31:44.476Z,7.4
2023-04-01T12:32:44.208Z,7.7
2023-04-01T12:33:44.230Z,7.3
2023-04-01T12:34:44.162Z,9.5
2023-04-01T12:35:44.273Z,5.9
2023-04-01T12:36:44.208Z,5.6
2023-04-01T12:37:44.200Z,6.6
2023-04-01T12:38:44.181Z,6.4
2023-04-01T12:39:44.190Z,6.5
2023-04-01T12:40:44.234Z,5.8
2023-04-01T12:41:44.368Z,4.5
2023-04-01T12:42:44.236Z,5.8
2023-04-01T12:43:44.157Z,4.7
2023-04-01T12:44:44.155Z,6.2
2023-04-01T12:45:45.355Z,4.0
2023-04-01T12:46:45.274Z,7.6
2023-04-01T12:47:44.275Z,8.2
2023-04-01T12:48:45.000Z,14.6
2023-04-01T12:49:44.958Z,94.7
2023-04-01T12:50:44.889Z,70.0
2023-04-01T12:51:44.874Z,110.8
2023-04-01T12:52:45.206Z,51.5
2023-04-01T12:53:45.030Z,92.0
2023-04-01T12:54:45.256Z,111.6
2023-04-01T12:55:45.119Z,321.7
2023-04-01T12:56:44.098Z,70.2
2023-04-01T12:57:44.631Z,34.6
2023-04-01T12:58:44.849Z,37.0
2023-04-01T12:59:44.964Z,53.6
2023-04-01T13:00:45.287Z,352.6
2023-04-01T13:01:44.866Z,148.8
2023-04-01T13:02:45.105Z,347.2
2023-04-01T13:03:45.097Z,159.9
2023-04-01T13:04:44.872Z,114.1
2023-04-01T13:05:45.237Z,210.4
2023-04-01T13:06:45.154Z,135.2
2023-04-01T13:07:45.933Z,66.1
2023-04-01T13:08:44.140Z,51.1
2023-04-01T13:09:47.091Z,22.3
2023-04-01T13:10:44.920Z,18.2
2023-04-01T13:11:44.242Z,32.0
2023-04-01T13:12:44.272Z,24.3
2023-04-01T13:13:44.137Z,23.9
2023-04-01T13:14:44.169Z,16.6
2023-04-01T13:15:44.247Z,17.4
2023-04-01T13:16:44.864Z,22.8
2023-04-01T13:17:44.111Z,33.7
2023-04-01T13:18:44.095Z,30.2
2023-04-01T13:19:54.281Z,33.5
2023-04-01T13:20:44.095Z,39.0
2023-04-01T13:21:44.108Z,38.7
2023-04-01T13:22:44.194Z,21.9
2023-04-01T13:23:44.065Z,29.2
2023-04-01T13:24:44.087Z,19.4
2023-04-01T13:25:44.073Z,24.5
2023-04-01T13:26:44.103Z,47.2
2023-04-01T13:27:44.800Z,52.8
2023-04-01T13:28:44.813Z,56.8
2023-04-01T13:29:44.870Z,62.7